Time;durP1;ratioP1;P1;durP2;ratioP2;P2;SDS_P1;SDS_P2;PMS_P1;PMS_P2;Temp;Humidity;BMP_temperature;BMP_pressure;BME280_temperature;BME280_humidity;BME280_pressure;Samples;Min_cycle;Max_cycle;Signal;HPM_P1;HPM_P2
2021/09/22 00:02:18;;;;;;;6.70;5.27;;;13.00;99.90;;;;;;5008914;28;20298;-50
2021/09/22 00:04:46;;;;;;;9.27;5.57;;;13.00;99.90;;;;;;5007821;28;20214;-50
2021/09/22 00:07:13;;;;;;;8.43;6.33;;;13.00;99.90;;;;;;5005723;28;20626;-49
2021/09/22 00:09:39;;;;;;;6.57;5.47;;;13.00;99.90;;;;;;5007276;28;20220;-50
2021/09/22 00:12:06;;;;;;;9.93;6.63;;;13.10;99.90;;;;;;5006106;28;20204;-50
2021/09/22 00:14:33;;;;;;;11.23;6.60;;;13.10;99.90;;;;;;5008693;28;20223;-50
2021/09/22 00:17:00;;;;;;;6.57;5.27;;;13.00;99.90;;;;;;5006992;28;20903;-50
2021/09/22 00:19:27;;;;;;;6.83;5.93;;;13.00;99.90;;;;;;5002411;28;20324;-50
2021/09/22 00:21:54;;;;;;;7.43;5.80;;;12.90;99.90;;;;;;5005012;28;20294;-50
2021/09/22 00:24:21;;;;;;;8.63;6.20;;;12.90;99.90;;;;;;5002801;28;20225;-50
2021/09/22 00:26:47;;;;;;;9.27;6.53;;;13.00;99.90;;;;;;5008330;28;20209;-50
2021/09/22 00:29:14;;;;;;;8.13;6.13;;;13.00;99.90;;;;;;5010249;28;20254;-49
2021/09/22 00:31:41;;;;;;;8.53;6.33;;;13.00;99.90;;;;;;5004205;28;20297;-50
2021/09/22 00:34:08;;;;;;;11.70;7.13;;;13.00;99.90;;;;;;5004951;28;20253;-50
2021/09/22 00:36:35;;;;;;;8.17;6.77;;;12.90;99.90;;;;;;5004535;28;20229;-50
2021/09/22 00:39:02;;;;;;;11.00;7.70;;;12.90;99.90;;;;;;5003549;28;20651;-50
2021/09/22 00:41:29;;;;;;;11.63;7.80;;;12.90;99.90;;;;;;5005110;28;20248;-50
2021/09/22 00:43:56;;;;;;;8.93;7.57;;;13.00;99.90;;;;;;5009171;28;20201;-50
2021/09/22 00:46:23;;;;;;;9.20;7.40;;;12.90;99.90;;;;;;4989134;28;20612;-50
2021/09/22 00:48:51;;;;;;;10.30;6.63;;;12.90;99.90;;;;;;5009380;28;20414;-50
2021/09/22 00:51:17;;;;;;;10.80;7.67;;;12.90;99.90;;;;;;5007234;28;21630;-49
2021/09/22 00:53:44;;;;;;;10.73;7.27;;;12.90;99.90;;;;;;5011564;28;20306;-50
2021/09/22 00:56:11;;;;;;;10.23;6.93;;;12.90;99.90;;;;;;5003750;28;20239;-50
2021/09/22 00:58:38;;;;;;;9.33;7.47;;;13.00;99.90;;;;;;5007243;28;20286;-49
2021/09/22 01:01:05;;;;;;;12.10;7.73;;;13.00;99.90;;;;;;5006959;28;20735;-50
2021/09/22 01:03:32;;;;;;;11.60;7.93;;;12.90;99.90;;;;;;5005950;28;20299;-50
2021/09/22 01:06:00;;;;;;;9.40;6.87;;;12.90;99.90;;;;;;5005577;28;20219;-50
2021/09/22 01:08:31;;;;;;;11.43;7.47;;;12.80;99.90;;;;;;5004513;28;20583;-50
2021/09/22 01:10:59;;;;;;;10.27;7.57;;;12.80;99.90;;;;;;5005498;28;20333;-50
2021/09/22 01:13:26;;;;;;;10.87;8.03;;;12.80;99.90;;;;;;5007973;28;20320;-50
2021/09/22 01:15:53;;;;;;;10.53;7.70;;;12.80;99.90;;;;;;4998175;28;20328;-50
2021/09/22 01:18:23;;;;;;;11.13;8.57;;;12.80;99.90;;;;;;5002715;28;20214;-50
2021/09/22 01:20:59;;;;;;;11.13;8.70;;;12.70;99.90;;;;;;5010736;28;20323;-50
2021/09/22 01:23:27;;;;;;;12.53;7.90;;;12.70;99.90;;;;;;5015400;28;20239;-50
2021/09/22 01:25:54;;;;;;;14.77;8.90;;;12.70;99.90;;;;;;5012125;28;20343;-50
2021/09/22 01:28:24;;;;;;;13.23;8.67;;;12.70;99.90;;;;;;5009140;28;20220;-50
2021/09/22 01:30:52;;;;;;;10.83;7.77;;;12.70;99.90;;;;;;5007741;28;20256;-49
2021/09/22 01:33:22;;;;;;;10.07;7.40;;;12.60;99.90;;;;;;5005370;28;20261;-50
2021/09/22 01:35:50;;;;;;;8.37;6.40;;;12.70;99.90;;;;;;5009263;28;20197;-49
2021/09/22 01:38:23;;;;;;;7.80;6.10;;;12.60;99.90;;;;;;5009957;28;20205;-49
2021/09/22 01:40:59;;;;;;;6.83;5.10;;;12.50;99.90;;;;;;5007005;28;20198;-50
2021/09/22 01:43:28;;;;;;;7.37;6.07;;;12.60;99.90;;;;;;5010516;28;20251;-50
2021/09/22 01:45:57;;;;;;;9.70;6.87;;;12.60;99.90;;;;;;5007854;28;20241;-50
2021/09/22 01:48:24;;;;;;;7.30;6.27;;;12.50;99.90;;;;;;5007736;28;20228;-50
2021/09/22 01:50:51;;;;;;;8.53;6.93;;;12.50;99.90;;;;;;5013005;28;20537;-50
2021/09/22 01:53:17;;;;;;;10.73;6.87;;;12.40;99.90;;;;;;5007381;28;20650;-50
2021/09/22 01:55:44;;;;;;;8.43;6.93;;;12.30;99.90;;;;;;5006503;28;20825;-50
2021/09/22 01:58:12;;;;;;;10.60;6.67;;;12.30;99.90;;;;;;5006906;28;20224;-50
2021/09/22 02:00:39;;;;;;;8.53;6.70;;;12.40;99.90;;;;;;5009496;28;20684;-50
2021/09/22 02:03:06;;;;;;;8.87;6.97;;;12.30;99.90;;;;;;5006455;28;20211;-50
2021/09/22 02:05:33;;;;;;;9.97;7.60;;;12.20;99.90;;;;;;5003089;28;20451;-50
2021/09/22 02:08:00;;;;;;;10.83;7.97;;;12.20;99.90;;;;;;5026672;28;20295;-50
2021/09/22 02:10:27;;;;;;;10.67;8.57;;;12.20;99.90;;;;;;5005245;28;20312;-50
2021/09/22 02:12:54;;;;;;;11.93;8.33;;;12.10;99.90;;;;;;5008160;28;20225;-49
2021/09/22 02:15:21;;;;;;;9.97;7.47;;;12.20;99.90;;;;;;5005823;28;20301;-50
2021/09/22 02:17:48;;;;;;;10.70;8.13;;;12.20;99.90;;;;;;5002273;28;20291;-49
2021/09/22 02:20:15;;;;;;;11.37;7.70;;;12.30;99.90;;;;;;5005759;28;20563;-49
2021/09/22 02:22:42;;;;;;;12.27;8.67;;;12.20;99.90;;;;;;5006953;28;20236;-50
2021/09/22 02:25:10;;;;;;;10.97;8.10;;;12.20;99.90;;;;;;5007664;28;20240;-50
2021/09/22 02:27:38;;;;;;;13.70;8.77;;;12.10;99.90;;;;;;5003752;28;20240;-49
2021/09/22 02:30:08;;;;;;;13.27;7.87;;;12.10;99.90;;;;;;5009648;28;20728;-49
2021/09/22 02:32:36;;;;;;;11.77;8.23;;;12.20;99.90;;;;;;4999489;28;20304;-50
2021/09/22 02:35:04;;;;;;;11.83;8.17;;;12.30;99.90;;;;;;5014729;28;20343;-49
2021/09/22 02:37:31;;;;;;;12.60;8.87;;;12.20;99.90;;;;;;5005923;28;20643;-50
2021/09/22 02:39:58;;;;;;;11.90;8.90;;;12.20;99.90;;;;;;5012450;28;20647;-49
2021/09/22 02:42:25;;;;;;;14.30;9.50;;;12.20;99.90;;;;;;5012439;28;20323;-50
2021/09/22 02:44:52;;;;;;;14.87;9.57;;;12.20;99.90;;;;;;5006713;28;20545;-50
2021/09/22 02:47:23;;;;;;;13.50;8.90;;;12.10;99.90;;;;;;5007401;28;20305;-49
2021/09/22 02:49:50;;;;;;;11.37;8.93;;;12.10;99.90;;;;;;5013822;28;20256;-49
2021/09/22 02:52:17;;;;;;;14.00;8.70;;;12.10;99.90;;;;;;5014421;28;20271;-49
2021/09/22 02:54:44;;;;;;;12.47;8.77;;;12.00;99.90;;;;;;5008721;28;20243;-50
2021/09/22 02:57:10;;;;;;;14.00;9.03;;;12.00;99.90;;;;;;5006491;28;20579;-50
2021/09/22 02:59:37;;;;;;;11.10;8.17;;;12.10;99.90;;;;;;5009659;28;20206;-49
2021/09/22 03:02:05;;;;;;;12.10;8.53;;;11.90;99.90;;;;;;5002654;28;20331;-49
2021/09/22 03:04:32;;;;;;;11.50;8.80;;;11.90;99.90;;;;;;5008974;28;20618;-49
2021/09/22 03:06:59;;;;;;;13.73;9.93;;;11.80;99.90;;;;;;5007247;28;20604;-50
2021/09/22 03:09:26;;;;;;;13.20;9.03;;;11.80;99.90;;;;;;5006524;28;20618;-49
2021/09/22 03:11:53;;;;;;;12.47;8.70;;;11.70;99.90;;;;;;5007680;28;20228;-49
2021/09/22 03:14:21;;;;;;;13.00;9.93;;;11.60;99.90;;;;;;5007457;28;20517;-49
2021/09/22 03:16:48;;;;;;;14.40;9.67;;;11.50;99.90;;;;;;5009284;28;20255;-50
2021/09/22 03:19:15;;;;;;;14.40;9.57;;;11.40;99.90;;;;;;5000634;28;20327;-50
2021/09/22 03:21:42;;;;;;;15.67;9.10;;;11.30;99.90;;;;;;5011746;28;20193;-52
2021/09/22 03:24:08;;;;;;;15.07;9.17;;;11.20;99.90;;;;;;5003065;28;20295;-49
2021/09/22 03:26:35;;;;;;;13.90;8.97;;;11.10;99.90;;;;;;5008777;28;20346;-49
2021/09/22 03:29:02;;;;;;;14.93;9.33;;;11.10;99.90;;;;;;5007634;28;20258;-50
2021/09/22 03:31:29;;;;;;;13.93;9.07;;;11.20;99.90;;;;;;5005874;28;20712;-50
2021/09/22 03:33:56;;;;;;;13.53;8.97;;;11.10;99.90;;;;;;5005157;28;20232;-49
2021/09/22 03:36:22;;;;;;;13.83;9.17;;;11.20;99.90;;;;;;5007639;28;20623;-50
2021/09/22 03:38:49;;;;;;;12.93;8.83;;;11.30;99.90;;;;;;5006229;28;20359;-49
2021/09/22 03:41:16;;;;;;;12.27;9.20;;;11.30;99.90;;;;;;5004345;28;20324;-49
2021/09/22 03:43:43;;;;;;;14.07;9.80;;;11.50;99.90;;;;;;5006099;28;20244;-50
2021/09/22 03:46:10;;;;;;;14.73;10.17;;;11.50;99.90;;;;;;5003396;28;20332;-50
2021/09/22 03:48:37;;;;;;;15.23;10.07;;;11.50;99.90;;;;;;5015473;28;20617;-50
2021/09/22 03:51:04;;;;;;;12.63;9.73;;;11.40;99.90;;;;;;5011206;28;20255;-50
2021/09/22 03:53:30;;;;;;;15.73;10.90;;;11.50;99.90;;;;;;5008051;28;20497;-50
2021/09/22 03:55:57;;;;;;;18.43;11.50;;;11.50;99.90;;;;;;5005969;28;20988;-50
2021/09/22 03:58:24;;;;;;;15.50;11.10;;;11.50;99.90;;;;;;4996346;28;20649;-49
2021/09/22 04:00:51;;;;;;;17.23;11.93;;;11.50;99.90;;;;;;5012752;28;20287;-50
2021/09/22 04:03:18;;;;;;;19.07;12.47;;;11.50;99.90;;;;;;5004468;28;20223;-50
2021/09/22 04:05:45;;;;;;;18.57;11.63;;;11.60;99.90;;;;;;5008042;28;20235;-50
2021/09/22 04:08:12;;;;;;;18.10;11.63;;;11.60;99.90;;;;;;5003585;28;20248;-50
2021/09/22 04:10:39;;;;;;;16.10;11.47;;;11.70;99.90;;;;;;5004302;28;20252;-50
2021/09/22 04:13:06;;;;;;;21.43;12.90;;;11.50;99.90;;;;;;5004772;28;20291;-50
2021/09/22 04:15:33;;;;;;;20.57;13.40;;;11.40;99.90;;;;;;5006452;28;20239;-49
2021/09/22 04:18:00;;;;;;;21.70;12.87;;;11.50;99.90;;;;;;5004556;28;20641;-49
2021/09/22 04:20:28;;;;;;;19.50;12.50;;;11.50;99.90;;;;;;5008649;28;20327;-50
2021/09/22 04:22:55;;;;;;;23.07;12.90;;;11.50;99.90;;;;;;5007172;28;20240;-49
2021/09/22 04:25:22;;;;;;;22.83;12.87;;;11.60;99.90;;;;;;5023437;28;20231;-49
2021/09/22 04:27:49;;;;;;;20.57;13.13;;;11.60;99.90;;;;;;5001833;28;20237;-50
2021/09/22 04:30:16;;;;;;;19.93;12.80;;;11.60;99.90;;;;;;5006670;28;20332;-50
2021/09/22 04:32:42;;;;;;;19.47;12.43;;;11.70;99.90;;;;;;5001113;28;20252;-50
2021/09/22 04:35:09;;;;;;;19.67;12.53;;;11.70;99.90;;;;;;5006553;28;20228;-50
2021/09/22 04:37:37;;;;;;;21.37;13.83;;;11.60;99.90;;;;;;5007003;28;20225;-50
2021/09/22 04:40:07;;;;;;;22.03;13.37;;;11.50;99.90;;;;;;5006681;28;20281;-50
2021/09/22 04:42:34;;;;;;;19.20;13.20;;;11.60;99.90;;;;;;5002792;28;20236;-50
2021/09/22 04:45:01;;;;;;;21.83;14.40;;;11.50;99.90;;;;;;5007811;28;20229;-50
2021/09/22 04:47:29;;;;;;;22.20;13.37;;;11.60;99.90;;;;;;5003167;28;20708;-50
2021/09/22 04:50:07;;;;;;;22.67;13.63;;;11.70;99.90;;;;;;5005891;28;20221;-50
2021/09/22 04:52:34;;;;;;;19.93;13.83;;;11.70;99.90;;;;;;5010059;28;20197;-50
2021/09/22 04:55:01;;;;;;;19.63;13.37;;;11.70;99.90;;;;;;4996236;28;20319;-50
2021/09/22 04:57:27;;;;;;;23.50;13.90;;;11.70;99.90;;;;;;5000768;28;20236;-50
2021/09/22 04:59:54;;;;;;;21.87;13.40;;;11.70;99.90;;;;;;5004395;28;20233;-50
2021/09/22 05:02:21;;;;;;;19.33;14.00;;;11.70;99.90;;;;;;5003280;28;20243;-50
2021/09/22 05:04:49;;;;;;;23.10;13.93;;;11.70;99.90;;;;;;5018080;28;20202;-50
2021/09/22 05:07:15;;;;;;;20.83;14.13;;;11.70;99.90;;;;;;5008302;28;20710;-50
2021/09/22 05:09:42;;;;;;;26.47;14.83;;;11.70;99.90;;;;;;5004137;28;20231;-50
2021/09/22 05:12:09;;;;;;;23.83;14.03;;;11.70;99.90;;;;;;5005744;28;20307;-50
2021/09/22 05:14:36;;;;;;;21.97;13.47;;;11.70;99.90;;;;;;5009246;28;20305;-50
2021/09/22 05:17:03;;;;;;;21.73;13.47;;;11.70;99.90;;;;;;5005144;28;20279;-50
2021/09/22 05:19:30;;;;;;;23.47;13.57;;;11.70;99.90;;;;;;5006269;28;20337;-50
2021/09/22 05:21:58;;;;;;;25.23;15.50;;;11.70;99.90;;;;;;5004035;28;20238;-50
2021/09/22 05:24:25;;;;;;;20.43;14.20;;;11.70;99.90;;;;;;5003875;28;20291;-50
2021/09/22 05:26:52;;;;;;;20.53;13.83;;;11.70;99.90;;;;;;5002924;28;20686;-50
2021/09/22 05:29:19;;;;;;;22.70;13.80;;;11.70;99.90;;;;;;5008745;28;20246;-50
2021/09/22 05:31:45;;;;;;;22.67;14.33;;;11.60;99.90;;;;;;5002928;28;20272;-50
2021/09/22 05:34:13;;;;;;;20.37;14.03;;;11.70;99.90;;;;;;5000378;28;20215;-50
2021/09/22 05:36:39;;;;;;;21.73;13.63;;;11.70;99.90;;;;;;5005339;28;20687;-50
2021/09/22 05:39:06;;;;;;;22.17;14.23;;;11.70;99.90;;;;;;5003326;28;20329;-50
2021/09/22 05:41:33;;;;;;;20.33;13.53;;;11.70;99.90;;;;;;5000263;28;20253;-50
2021/09/22 05:44:00;;;;;;;21.80;13.53;;;11.70;99.90;;;;;;5002844;28;20278;-51
2021/09/22 05:46:27;;;;;;;24.07;14.87;;;11.70;99.90;;;;;;5000967;28;20655;-50
2021/09/22 05:48:54;;;;;;;22.40;14.13;;;11.70;99.90;;;;;;5000744;28;20210;-50
2021/09/22 05:51:20;;;;;;;20.57;13.30;;;11.70;99.90;;;;;;5015299;28;20282;-50
2021/09/22 05:53:48;;;;;;;20.37;14.13;;;11.80;99.90;;;;;;5004050;28;20232;-50
2021/09/22 05:56:15;;;;;;;21.23;13.20;;;11.80;99.90;;;;;;5002828;28;20299;-50
2021/09/22 05:58:42;;;;;;;20.13;12.97;;;11.80;99.90;;;;;;5006067;28;20548;-50
2021/09/22 06:01:08;;;;;;;19.43;12.93;;;11.80;99.90;;;;;;5003285;28;20302;-50
2021/09/22 06:03:36;;;;;;;19.67;13.27;;;11.80;99.90;;;;;;5008885;28;20326;-50
2021/09/22 06:06:03;;;;;;;21.23;13.63;;;11.80;99.90;;;;;;5002956;28;20200;-50
2021/09/22 06:08:30;;;;;;;22.30;12.93;;;11.80;99.90;;;;;;5011040;28;20670;-50
2021/09/22 06:10:57;;;;;;;25.83;14.20;;;11.80;99.90;;;;;;4998503;28;20226;-50
2021/09/22 06:13:24;;;;;;;25.33;14.37;;;11.80;99.90;;;;;;4998025;28;20288;-50
2021/09/22 06:15:52;;;;;;;19.47;13.73;;;11.90;99.90;;;;;;5016729;28;20299;-50
2021/09/22 06:18:23;;;;;;;20.83;13.90;;;12.00;99.90;;;;;;5006885;28;20286;-50
2021/09/22 06:20:50;;;;;;;22.20;14.27;;;12.00;99.90;;;;;;5012363;28;20345;-50
2021/09/22 06:23:17;;;;;;;21.63;13.63;;;12.00;99.90;;;;;;5004511;28;20203;-50
2021/09/22 06:25:44;;;;;;;21.60;13.93;;;11.80;99.90;;;;;;4995442;28;20999;-51
2021/09/22 06:28:11;;;;;;;20.93;14.23;;;11.70;99.90;;;;;;5000636;28;20269;-50
2021/09/22 06:30:38;;;;;;;26.40;15.10;;;11.50;99.90;;;;;;4999399;28;20224;-51
2021/09/22 06:33:04;;;;;;;20.63;14.10;;;11.40;99.90;;;;;;5001940;28;20313;-50
2021/09/22 06:35:31;;;;;;;23.80;13.23;;;11.40;99.90;;;;;;5001793;28;20735;-50
2021/09/22 06:37:58;;;;;;;22.03;12.93;;;11.60;99.90;;;;;;5006498;28;20210;-51
2021/09/22 06:40:25;;;;;;;20.73;13.93;;;11.70;99.90;;;;;;5004054;28;20274;-50
2021/09/22 06:42:52;;;;;;;20.77;13.47;;;11.90;99.90;;;;;;5001296;28;20254;-50
2021/09/22 06:45:22;;;;;;;20.87;13.40;;;11.70;99.90;;;;;;4997909;28;20712;-50
2021/09/22 06:47:50;;;;;;;20.00;13.37;;;11.60;99.90;;;;;;5002354;28;20203;-50
2021/09/22 06:50:17;;;;;;;20.77;13.70;;;11.60;99.90;;;;;;5004077;28;20294;-50
2021/09/22 06:52:44;;;;;;;23.13;13.73;;;11.70;99.90;;;;;;5001152;28;20561;-50
2021/09/22 06:55:11;;;;;;;18.00;12.70;;;11.80;99.90;;;;;;4997576;28;20234;-50
2021/09/22 06:57:38;;;;;;;22.17;14.77;;;11.90;99.90;;;;;;4998604;28;20255;-50
2021/09/22 07:00:10;;;;;;;22.97;13.87;;;12.00;99.90;;;;;;5001361;28;20206;-50
2021/09/22 07:02:37;;;;;;;27.60;14.03;;;12.10;99.90;;;;;;4998681;28;20707;-50
2021/09/22 07:05:06;;;;;;;25.43;14.50;;;12.20;99.90;;;;;;5012168;28;20207;-51
2021/09/22 07:07:33;;;;;;;22.67;13.30;;;12.20;99.90;;;;;;5001360;28;20589;-51
2021/09/22 07:10:00;;;;;;;30.00;14.37;;;12.30;99.90;;;;;;4998134;28;20232;-50
2021/09/22 07:12:27;;;;;;;26.03;13.73;;;12.30;99.90;;;;;;5000931;28;20368;-51
2021/09/22 07:14:54;;;;;;;27.73;14.57;;;12.40;99.90;;;;;;5000278;28;20820;-50
2021/09/22 07:17:21;;;;;;;22.77;13.80;;;12.50;99.90;;;;;;4999960;28;20284;-50
2021/09/22 07:19:47;;;;;;;21.90;13.73;;;12.60;99.90;;;;;;5002213;28;20786;-50
2021/09/22 07:22:14;;;;;;;21.13;12.80;;;12.60;17.70;;;;;;4999773;28;20606;-49
2021/09/22 07:24:42;;;;;;;22.37;13.63;;;12.80;1.00;;;;;;4999004;28;20197;-49
2021/09/22 07:27:09;;;;;;;17.90;13.37;;;12.90;1.00;;;;;;5002382;28;20244;-51
2021/09/22 07:29:36;;;;;;;20.47;13.07;;;12.90;1.00;;;;;;5001854;28;20311;-50
2021/09/22 07:32:06;;;;;;;19.83;13.17;;;12.70;1.00;;;;;;5000966;28;20624;-50
2021/09/22 07:34:34;;;;;;;21.43;13.53;;;12.70;1.00;;;;;;5001446;28;20623;-50
2021/09/22 07:37:09;;;;;;;21.97;14.80;;;13.00;1.00;;;;;;4999338;28;20275;-50
2021/09/22 07:39:41;;;;;;;20.03;13.23;;;13.10;1.00;;;;;;4998611;28;20201;-50
2021/09/22 07:42:12;;;;;;;19.40;13.90;;;13.30;1.00;;;;;;5001363;28;20304;-50
2021/09/22 07:44:47;;;;;;;20.57;13.37;;;13.50;1.00;;;;;;5000196;28;20244;-50
2021/09/22 07:47:15;;;;;;;19.30;12.70;;;13.80;1.00;;;;;;4998793;28;20251;-50
2021/09/22 07:49:43;;;;;;;18.30;12.83;;;13.90;99.90;;;;;;5003823;28;20229;-50
2021/09/22 07:52:12;;;;;;;21.03;13.77;;;14.00;99.90;;;;;;4998137;28;20619;-51
2021/09/22 07:54:39;;;;;;;18.70;13.03;;;14.10;99.90;;;;;;4996788;28;20204;-50
2021/09/22 07:57:06;;;;;;;19.47;13.90;;;14.20;1.00;;;;;;4993725;28;20288;-50
2021/09/22 07:59:33;;;;;;;17.63;12.87;;;14.30;1.00;;;;;;4999405;28;20327;-50
2021/09/22 08:02:01;;;;;;;21.33;13.37;;;14.20;1.00;;;;;;5002359;28;20618;-50
2021/09/22 08:04:29;;;;;;;18.73;13.00;;;14.10;99.90;;;;;;4997428;28;20199;-50
2021/09/22 08:06:58;;;;;;;19.37;13.10;;;14.30;99.90;;;;;;4997423;28;20337;-50
2021/09/22 08:09:26;;;;;;;20.30;13.67;;;14.50;26.50;;;;;;4996041;28;20241;-50
2021/09/22 08:11:54;;;;;;;18.53;13.23;;;14.60;48.00;;;;;;4995677;28;20240;-50
2021/09/22 08:14:34;;;;;;;20.77;12.93;;;14.80;1.00;;;;;;4998599;28;20201;-50
2021/09/22 08:17:02;;;;;;;17.53;11.97;;;14.80;1.00;;;;;;4997460;28;20270;-50
2021/09/22 08:19:29;;;;;;;21.47;12.97;;;15.10;99.90;;;;;;4997432;28;20264;-50
2021/09/22 08:21:57;;;;;;;20.47;12.30;;;15.50;99.90;;;;;;4998113;28;20203;-51
2021/09/22 08:24:24;;;;;;;20.70;13.20;;;15.90;99.90;;;;;;4996075;28;20728;-50
2021/09/22 08:26:53;;;;;;;17.80;11.47;;;16.20;99.90;;;;;;4994904;28;20244;-50
2021/09/22 08:29:21;;;;;;;19.80;12.63;;;16.10;99.90;;;;;;4996356;28;20529;-51
2021/09/22 08:31:49;;;;;;;18.50;11.73;;;16.10;99.90;;;;;;4994967;28;20705;-51
2021/09/22 08:34:17;;;;;;;21.13;12.93;;;16.10;1.00;;;;;;4997779;28;20204;-50
2021/09/22 08:36:44;;;;;;;20.63;12.63;;;16.30;1.00;;;;;;4989594;28;20327;-51
2021/09/22 08:39:13;;;;;;;16.90;11.73;;;16.50;39.80;;;;;;4994310;28;20200;-51
2021/09/22 08:41:40;;;;;;;15.97;11.07;;;16.30;1.00;;;;;;4993042;28;20296;-50
2021/09/22 08:44:09;;;;;;;18.70;12.07;;;16.40;1.00;;;;;;4991582;28;20199;-50
2021/09/22 08:46:41;;;;;;;20.77;12.90;;;16.30;1.00;;;;;;4997586;28;20727;-50
2021/09/22 08:49:09;;;;;;;17.27;11.33;;;16.60;1.00;;;;;;5000586;28;20665;-51
2021/09/22 08:51:37;;;;;;;18.87;11.83;;;16.90;1.00;;;;;;5001745;28;20655;-50
2021/09/22 08:54:04;;;;;;;14.40;11.20;;;16.70;1.00;;;;;;4998862;28;20199;-50
2021/09/22 08:56:32;;;;;;;16.33;10.70;;;16.80;1.00;;;;;;5001585;28;20596;-50
2021/09/22 08:58:58;;;;;;;16.33;11.73;;;17.10;1.00;;;;;;5002906;28;20644;-51
2021/09/22 09:01:26;;;;;;;19.33;11.20;;;17.30;38.50;;;;;;4998352;28;20672;-50
2021/09/22 09:03:54;;;;;;;20.43;11.67;;;17.80;99.90;;;;;;4997203;28;20246;-51
2021/09/22 09:06:25;;;;;;;14.23;10.20;;;17.60;99.90;;;;;;4993832;28;20320;-51
2021/09/22 09:08:57;;;;;;;16.83;10.43;;;17.60;99.90;;;;;;4998032;28;20255;-50
2021/09/22 09:11:30;;;;;;;13.50;9.27;;;17.70;1.00;;;;;;4994544;28;21425;-51
2021/09/22 09:13:59;;;;;;;11.37;8.63;;;17.60;1.00;;;;;;4994007;28;20325;-51
2021/09/22 09:16:42;;;;;;;12.23;9.07;;;17.80;1.00;;;;;;4991125;28;20240;-51
2021/09/22 09:19:15;;;;;;;11.93;8.47;;;17.80;99.90;;;;;;5001235;28;20239;-51
2021/09/22 09:22:02;;;;;;;13.70;9.67;;;17.60;1.00;;;;;;4991661;28;20200;-51
2021/09/22 09:24:30;;;;;;;14.40;9.70;;;17.70;1.00;;;;;;4983509;28;20208;-51
2021/09/22 09:26:57;;;;;;;15.70;10.13;;;17.80;1.00;;;;;;4986904;28;20658;-50
2021/09/22 09:29:27;;;;;;;15.60;10.03;;;17.80;1.00;;;;;;4994055;28;20592;-51
2021/09/22 09:32:10;;;;;;;14.17;9.00;;;17.80;1.00;;;;;;4996191;28;20631;-51
2021/09/22 09:34:38;;;;;;;14.20;10.23;;;17.80;1.00;;;;;;4996984;28;20613;-50
2021/09/22 09:37:05;;;;;;;14.33;10.03;;;17.70;1.00;;;;;;5003096;28;20263;-50
2021/09/22 09:39:34;;;;;;;12.87;9.83;;;17.60;1.00;;;;;;5001028;28;20205;-50
2021/09/22 09:42:02;;;;;;;11.50;9.03;;;17.80;1.00;;;;;;5001378;28;20241;-51
2021/09/22 09:44:31;;;;;;;15.13;10.10;;;17.80;1.00;;;;;;4998908;28;20241;-51
2021/09/22 09:47:09;;;;;;;13.67;9.67;;;17.80;1.00;;;;;;4998255;28;20218;-51
2021/09/22 09:49:37;;;;;;;12.87;9.17;;;17.90;1.00;;;;;;5000394;28;20208;-50
2021/09/22 09:52:05;;;;;;;14.47;9.77;;;18.00;1.00;;;;;;4998935;28;20252;-50
2021/09/22 09:54:36;;;;;;;13.47;9.93;;;17.90;1.00;;;;;;4999101;28;20235;-50
2021/09/22 09:57:15;;;;;;;13.23;9.87;;;18.00;1.00;;;;;;4999688;28;20197;-53
2021/09/22 09:59:50;;;;;;;15.47;10.13;;;18.00;99.90;;;;;;5001407;28;20262;-50
2021/09/22 10:02:31;;;;;;;13.47;10.17;;;17.90;99.90;;;;;;4998740;28;20357;-53
2021/09/22 10:05:00;;;;;;;16.83;10.23;;;17.80;99.90;;;;;;4996571;28;20209;-51
2021/09/22 10:07:29;;;;;;;16.60;11.80;;;17.70;1.00;;;;;;5003666;28;20212;-50
2021/09/22 10:09:56;;;;;;;14.60;9.97;;;17.70;99.90;;;;;;4994314;28;20217;-51
2021/09/22 10:12:24;;;;;;;16.07;10.00;;;17.80;99.90;;;;;;5000728;28;20328;-50
2021/09/22 10:14:52;;;;;;;15.40;11.23;;;18.00;1.00;;;;;;4999890;28;20386;-51
2021/09/22 10:17:22;;;;;;;17.13;10.73;;;18.00;99.90;;;;;;4996543;28;20205;-51
2021/09/22 10:19:51;;;;;;;16.70;11.77;;;17.90;99.90;;;;;;4999248;28;20335;-51
2021/09/22 10:22:18;;;;;;;17.33;11.13;;;18.00;99.90;;;;;;4998213;28;20207;-51
2021/09/22 10:24:49;;;;;;;14.90;10.30;;;18.00;99.90;;;;;;4993638;28;20212;-51
2021/09/22 10:27:17;;;;;;;14.87;10.83;;;18.10;99.90;;;;;;4996515;28;20595;-51
2021/09/22 10:30:00;;;;;;;17.37;10.73;;;18.10;99.90;;;;;;4996259;28;20695;-51
2021/09/22 10:32:43;;;;;;;13.20;11.00;;;18.20;99.90;;;;;;5014953;28;20339;-51
2021/09/22 10:35:25;;;;;;;14.57;10.73;;;18.30;99.90;;;;;;4999080;28;20580;-52
2021/09/22 10:37:55;;;;;;;17.67;11.30;;;18.40;98.00;;;;;;4997746;28;20225;-51
2021/09/22 10:40:34;;;;;;;14.50;10.23;;;18.50;17.10;;;;;;4994055;28;20506;-51
2021/09/22 10:43:19;;;;;;;17.93;9.93;;;18.60;1.00;;;;;;4994714;28;20552;-51
2021/09/22 10:46:09;;;;;;;16.97;10.57;;;18.50;25.90;;;;;;4998596;28;20597;-51
2021/09/22 10:48:42;;;;;;;12.87;9.60;;;18.60;1.00;;;;;;4997889;28;20601;-51
2021/09/22 10:51:10;;;;;;;13.00;9.83;;;18.80;1.00;;;;;;5003010;28;20694;-51
2021/09/22 10:53:39;;;;;;;15.83;10.93;;;18.70;1.00;;;;;;4994504;28;20306;-51
2021/09/22 10:56:16;;;;;;;13.73;9.83;;;18.90;1.00;;;;;;4999817;28;20283;-51
2021/09/22 10:58:50;;;;;;;11.23;8.77;;;19.00;1.00;;;;;;4993509;28;20244;-51
2021/09/22 11:01:35;;;;;;;16.80;10.27;;;19.20;1.00;;;;;;4998183;28;20241;-51
2021/09/22 11:04:13;;;;;;;11.60;8.67;;;19.20;1.00;;;;;;4993876;28;20289;-51
2021/09/22 11:06:48;;;;;;;12.33;8.93;;;19.20;1.00;;;;;;4998995;28;20217;-51
2021/09/22 11:09:19;;;;;;;12.33;8.73;;;19.20;1.00;;;;;;5002414;28;20341;-51
2021/09/22 11:12:03;;;;;;;12.07;8.57;;;19.40;1.00;;;;;;5002172;28;20250;-51
2021/09/22 11:14:42;;;;;;;10.87;6.27;;;19.60;1.00;;;;;;4998267;28;20611;-51
2021/09/22 11:17:17;;;;;;;9.63;7.10;;;19.60;1.00;;;;;;4998620;28;20291;-52
2021/09/22 11:19:55;;;;;;;9.97;6.63;;;19.60;99.90;;;;;;4999415;28;20230;-51
2021/09/22 11:22:34;;;;;;;9.87;7.10;;;19.80;1.00;;;;;;5002235;28;20209;-52
2021/09/22 11:25:07;;;;;;;10.93;7.67;;;20.00;99.90;;;;;;4995824;28;20654;-51
2021/09/22 11:27:34;;;;;;;9.47;6.37;;;20.00;99.90;;;;;;4998514;28;20644;-51
2021/09/22 11:30:04;;;;;;;8.93;5.80;;;20.20;1.00;;;;;;4999455;28;20910;-51
2021/09/22 11:32:42;;;;;;;11.20;7.63;;;20.50;99.90;;;;;;4988657;28;20234;-51
2021/09/22 11:35:11;;;;;;;8.27;6.53;;;20.40;99.90;;;;;;4997392;28;20219;-51
2021/09/22 11:37:52;;;;;;;10.37;7.03;;;20.60;99.90;;;;;;5000268;28;20304;-50
2021/09/22 11:40:21;;;;;;;11.13;6.93;;;20.70;99.90;;;;;;4997146;28;20225;-51
2021/09/22 11:42:56;;;;;;;8.00;5.43;;;20.70;99.90;;;;;;5016563;28;20350;-52
2021/09/22 11:45:33;;;;;;;6.57;5.60;;;21.00;99.90;;;;;;5000095;28;20690;-52
2021/09/22 11:48:04;;;;;;;7.60;5.63;;;21.40;99.90;;;;;;4993667;28;20677;-52
2021/09/22 11:50:35;;;;;;;10.57;6.80;;;21.20;99.90;;;;;;5000879;28;20209;-52
2021/09/22 11:53:05;;;;;;;7.50;6.17;;;21.20;99.90;;;;;;5000933;28;20287;-52
2021/09/22 11:55:32;;;;;;;8.40;5.53;;;21.40;99.90;;;;;;4999883;28;20223;-52
2021/09/22 11:58:07;;;;;;;8.47;6.30;;;21.20;99.90;;;;;;4997214;28;20205;-52
2021/09/22 12:00:34;;;;;;;7.47;6.00;;;21.20;99.90;;;;;;4997533;28;20277;-52
2021/09/22 12:03:09;;;;;;;8.90;6.30;;;21.40;99.90;;;;;;4996100;28;20199;-52
2021/09/22 12:05:38;;;;;;;6.30;5.10;;;21.50;99.90;;;;;;4996796;28;20203;-52
2021/09/22 12:08:06;;;;;;;10.53;6.50;;;22.00;99.90;;;;;;4998937;28;20217;-52
2021/09/22 12:10:34;;;;;;;9.93;6.40;;;22.10;99.90;;;;;;4997979;28;20229;-52
2021/09/22 12:13:03;;;;;;;11.93;6.73;;;22.30;99.90;;;;;;5000250;28;20214;-52
2021/09/22 12:15:31;;;;;;;7.57;6.17;;;22.50;99.90;;;;;;4997138;28;20205;-52
2021/09/22 12:17:59;;;;;;;9.47;6.33;;;22.50;45.00;;;;;;5001189;28;20248;-52
2021/09/22 12:20:30;;;;;;;5.70;5.03;;;22.50;1.00;;;;;;4999270;28;20626;-52
2021/09/22 12:23:01;;;;;;;8.63;6.03;;;22.70;1.90;;;;;;5004636;28;20257;-52
2021/09/22 12:25:29;;;;;;;7.73;5.67;;;22.70;1.00;;;;;;4997231;28;20662;-52
2021/09/22 12:27:58;;;;;;;8.67;7.00;;;22.90;1.00;;;;;;4998286;28;20232;-52
2021/09/22 12:30:34;;;;;;;8.00;6.37;;;22.80;1.00;;;;;;4994049;28;20213;-52
2021/09/22 12:33:06;;;;;;;9.67;5.80;;;22.90;3.40;;;;;;4993430;28;20360;-52
2021/09/22 12:35:39;;;;;;;8.13;5.67;;;23.10;1.00;;;;;;4998529;28;20272;-52
2021/09/22 12:38:08;;;;;;;6.17;5.53;;;23.20;1.00;;;;;;5000247;28;20278;-52
2021/09/22 12:40:38;;;;;;;8.53;5.67;;;23.20;1.00;;;;;;4995974;28;20696;-52
2021/09/22 12:43:23;;;;;;;6.47;5.13;;;23.10;1.00;;;;;;5001703;28;20291;-52
2021/09/22 12:45:51;;;;;;;8.03;6.17;;;22.90;1.00;;;;;;4997005;28;20209;-52